sensor_id;sensor_type;location;lat;lon;timestamp;temperature;humidity
52513;DHT22;38422;53.172;6.974;2023-02-15T00:00:21;4.40;99.90
52513;DHT22;38422;53.172;6.974;2023-02-15T00:02:47;4.30;99.90
52513;DHT22;38422;53.172;6.974;2023-02-15T00:05:12;4.30;99.90
52513;DHT22;38422;53.172;6.974;2023-02-15T00:07:38;4.30;99.90
52513;DHT22;38422;53.172;6.974;2023-02-15T00:10:04;4.30;99.90
52513;DHT22;38422;53.172;6.974;2023-02-15T00:12:30;4.20;99.90
52513;DHT22;38422;53.172;6.974;2023-02-15T00:14:56;4.20;99.90
52513;DHT22;38422;53.172;6.974;2023-02-15T00:17:23;4.20;99.90
52513;DHT22;38422;53.172;6.974;2023-02-15T00:19:49;4.10;99.90
52513;DHT22;38422;53.172;6.974;2023-02-15T00:22:15;4.10;99.90
52513;DHT22;38422;53.172;6.974;2023-02-15T00:24:40;4.10;99.90
52513;DHT22;38422;53.172;6.974;2023-02-15T00:27:06;4.00;99.90
52513;DHT22;38422;53.172;6.974;2023-02-15T00:29:32;4.00;99.90
52513;DHT22;38422;53.172;6.974;2023-02-15T00:31:57;4.00;99.90
52513;DHT22;38422;53.172;6.974;2023-02-15T00:34:25;4.00;99.90
52513;DHT22;38422;53.172;6.974;2023-02-15T00:36:52;3.90;99.90
52513;DHT22;38422;53.172;6.974;2023-02-15T00:39:18;3.90;99.90
52513;DHT22;38422;53.172;6.974;2023-02-15T00:41:45;3.90;99.90
52513;DHT22;38422;53.172;6.974;2023-02-15T00:44:11;3.90;99.90
52513;DHT22;38422;53.172;6.974;2023-02-15T00:46:37;3.80;99.90
52513;DHT22;38422;53.172;6.974;2023-02-15T00:49:03;3.80;99.90
52513;DHT22;38422;53.172;6.974;2023-02-15T00:51:30;3.80;99.90
52513;DHT22;38422;53.172;6.974;2023-02-15T00:53:55;3.80;99.90
52513;DHT22;38422;53.172;6.974;2023-02-15T00:56:21;3.70;99.90
52513;DHT22;38422;53.172;6.974;2023-02-15T00:58:47;3.70;99.90
52513;DHT22;38422;53.172;6.974;2023-02-15T01:01:18;3.70;99.90
52513;DHT22;38422;53.172;6.974;2023-02-15T01:03:45;3.70;99.90
52513;DHT22;38422;53.172;6.974;2023-02-15T01:06:12;3.70;99.90
52513;DHT22;38422;53.172;6.974;2023-02-15T01:08:39;3.70;99.90
52513;DHT22;38422;53.172;6.974;2023-02-15T01:11:07;3.70;99.90
52513;DHT22;38422;53.172;6.974;2023-02-15T01:13:33;3.70;99.90
52513;DHT22;38422;53.172;6.974;2023-02-15T01:15:59;3.70;99.90
52513;DHT22;38422;53.172;6.974;2023-02-15T01:18:25;3.70;99.90
52513;DHT22;38422;53.172;6.974;2023-02-15T01:20:52;3.60;99.90
52513;DHT22;38422;53.172;6.974;2023-02-15T01:23:17;3.60;99.90
52513;DHT22;38422;53.172;6.974;2023-02-15T01:25:43;3.60;99.90
52513;DHT22;38422;53.172;6.974;2023-02-15T01:28:09;3.60;99.90
52513;DHT22;38422;53.172;6.974;2023-02-15T01:30:35;3.50;99.90
52513;DHT22;38422;53.172;6.974;2023-02-15T01:33:00;3.40;99.90
52513;DHT22;38422;53.172;6.974;2023-02-15T01:35:27;3.40;99.90
52513;DHT22;38422;53.172;6.974;2023-02-15T01:37:54;3.40;99.90
52513;DHT22;38422;53.172;6.974;2023-02-15T01:40:19;3.40;99.90
52513;DHT22;38422;53.172;6.974;2023-02-15T01:42:49;3.40;99.90
52513;DHT22;38422;53.172;6.974;2023-02-15T01:45:27;3.30;99.90
52513;DHT22;38422;53.172;6.974;2023-02-15T01:48:01;3.30;99.90
52513;DHT22;38422;53.172;6.974;2023-02-15T01:50:57;3.30;99.90
52513;DHT22;38422;53.172;6.974;2023-02-15T01:53:49;3.30;99.90
52513;DHT22;38422;53.172;6.974;2023-02-15T01:56:29;3.20;99.90
52513;DHT22;38422;53.172;6.974;2023-02-15T01:58:58;3.20;99.90
52513;DHT22;38422;53.172;6.974;2023-02-15T02:01:26;3.20;99.90
52513;DHT22;38422;53.172;6.974;2023-02-15T02:04:25;3.20;99.90
52513;DHT22;38422;53.172;6.974;2023-02-15T02:06:57;3.10;99.90
52513;DHT22;38422;53.172;6.974;2023-02-15T02:09:23;3.10;99.90
52513;DHT22;38422;53.172;6.974;2023-02-15T02:11:49;3.10;99.90
52513;DHT22;38422;53.172;6.974;2023-02-15T02:14:16;3.10;99.90
52513;DHT22;38422;53.172;6.974;2023-02-15T02:17:10;3.10;99.90
52513;DHT22;38422;53.172;6.974;2023-02-15T02:20:03;3.10;99.90
52513;DHT22;38422;53.172;6.974;2023-02-15T02:28:25;3.00;99.90
52513;DHT22;38422;53.172;6.974;2023-02-15T02:44:51;2.80;99.90
52513;DHT22;38422;53.172;6.974;2023-02-15T02:47:30;2.80;99.90
52513;DHT22;38422;53.172;6.974;2023-02-15T02:50:00;2.80;99.90
52513;DHT22;38422;53.172;6.974;2023-02-15T02:52:45;2.70;99.90
52513;DHT22;38422;53.172;6.974;2023-02-15T02:55:18;2.70;99.90
52513;DHT22;38422;53.172;6.974;2023-02-15T02:57:53;2.70;99.90
52513;DHT22;38422;53.172;6.974;2023-02-15T03:00:21;2.70;99.90
52513;DHT22;38422;53.172;6.974;2023-02-15T03:02:53;2.60;99.90
52513;DHT22;38422;53.172;6.974;2023-02-15T03:05:23;2.60;99.90
52513;DHT22;38422;53.172;6.974;2023-02-15T03:07:51;2.60;99.90
52513;DHT22;38422;53.172;6.974;2023-02-15T03:10:18;2.60;99.90
52513;DHT22;38422;53.172;6.974;2023-02-15T03:12:45;2.60;99.90
52513;DHT22;38422;53.172;6.974;2023-02-15T03:17:44;2.50;99.90
52513;DHT22;38422;53.172;6.974;2023-02-15T03:20:14;2.50;99.90
52513;DHT22;38422;53.172;6.974;2023-02-15T03:22:42;2.40;99.90
52513;DHT22;38422;53.172;6.974;2023-02-15T03:27:37;2.50;99.90
52513;DHT22;38422;53.172;6.974;2023-02-15T03:30:04;2.50;99.90
52513;DHT22;38422;53.172;6.974;2023-02-15T03:32:31;2.40;99.90
52513;DHT22;38422;53.172;6.974;2023-02-15T03:34:57;2.40;99.90
52513;DHT22;38422;53.172;6.974;2023-02-15T03:40:03;2.40;99.90
52513;DHT22;38422;53.172;6.974;2023-02-15T03:42:53;2.40;99.90
52513;DHT22;38422;53.172;6.974;2023-02-15T03:45:22;2.40;99.90
52513;DHT22;38422;53.172;6.974;2023-02-15T03:47:50;2.40;99.90
52513;DHT22;38422;53.172;6.974;2023-02-15T03:50:18;2.40;99.90
52513;DHT22;38422;53.172;6.974;2023-02-15T03:53:03;2.30;99.90
52513;DHT22;38422;53.172;6.974;2023-02-15T03:55:30;2.30;99.90
52513;DHT22;38422;53.172;6.974;2023-02-15T03:57:56;2.30;99.90
52513;DHT22;38422;53.172;6.974;2023-02-15T04:00:40;2.30;99.90
52513;DHT22;38422;53.172;6.974;2023-02-15T04:05:52;2.30;99.90
52513;DHT22;38422;53.172;6.974;2023-02-15T04:08:18;2.30;99.90
52513;DHT22;38422;53.172;6.974;2023-02-15T04:10:43;2.30;99.90
52513;DHT22;38422;53.172;6.974;2023-02-15T04:13:19;2.40;99.90
52513;DHT22;38422;53.172;6.974;2023-02-15T04:15:44;2.40;99.90
52513;DHT22;38422;53.172;6.974;2023-02-15T04:18:29;2.40;99.90
52513;DHT22;38422;53.172;6.974;2023-02-15T04:21:13;2.40;99.90
52513;DHT22;38422;53.172;6.974;2023-02-15T04:23:57;2.30;99.90
52513;DHT22;38422;53.172;6.974;2023-02-15T04:26:42;2.30;99.90
52513;DHT22;38422;53.172;6.974;2023-02-15T04:29:07;2.30;99.90
52513;DHT22;38422;53.172;6.974;2023-02-15T04:31:33;2.30;99.90
52513;DHT22;38422;53.172;6.974;2023-02-15T04:33:58;2.30;99.90
52513;DHT22;38422;53.172;6.974;2023-02-15T04:36:24;2.30;99.90
52513;DHT22;38422;53.172;6.974;2023-02-15T04:38:49;2.30;99.90
52513;DHT22;38422;53.172;6.974;2023-02-15T04:41:15;2.40;99.90
52513;DHT22;38422;53.172;6.974;2023-02-15T04:43:41;2.40;99.90
52513;DHT22;38422;53.172;6.974;2023-02-15T04:46:06;2.40;99.90
52513;DHT22;38422;53.172;6.974;2023-02-15T04:48:32;2.40;99.90
52513;DHT22;38422;53.172;6.974;2023-02-15T04:50:57;2.40;99.90
52513;DHT22;38422;53.172;6.974;2023-02-15T04:53:23;2.40;99.90
52513;DHT22;38422;53.172;6.974;2023-02-15T04:55:49;2.40;99.90
52513;DHT22;38422;53.172;6.974;2023-02-15T04:58:14;2.30;99.90
52513;DHT22;38422;53.172;6.974;2023-02-15T05:00:40;2.30;99.90
52513;DHT22;38422;53.172;6.974;2023-02-15T05:03:05;2.30;99.90
52513;DHT22;38422;53.172;6.974;2023-02-15T05:05:31;2.30;99.90
52513;DHT22;38422;53.172;6.974;2023-02-15T05:07:56;2.30;99.90
52513;DHT22;38422;53.172;6.974;2023-02-15T05:10:22;2.30;99.90
52513;DHT22;38422;53.172;6.974;2023-02-15T05:12:48;2.30;99.90
52513;DHT22;38422;53.172;6.974;2023-02-15T05:15:13;2.30;99.90
52513;DHT22;38422;53.172;6.974;2023-02-15T05:17:39;2.20;99.90
52513;DHT22;38422;53.172;6.974;2023-02-15T05:20:04;2.30;99.90
52513;DHT22;38422;53.172;6.974;2023-02-15T05:22:30;2.30;99.90
52513;DHT22;38422;53.172;6.974;2023-02-15T05:24:56;2.30;99.90
52513;DHT22;38422;53.172;6.974;2023-02-15T05:27:40;2.30;99.90
52513;DHT22;38422;53.172;6.974;2023-02-15T05:30:24;2.30;99.90
52513;DHT22;38422;53.172;6.974;2023-02-15T05:32:50;2.30;99.90
52513;DHT22;38422;53.172;6.974;2023-02-15T05:35:15;2.40;99.90
52513;DHT22;38422;53.172;6.974;2023-02-15T05:37:41;2.40;99.90
52513;DHT22;38422;53.172;6.974;2023-02-15T05:40:07;2.30;99.90
52513;DHT22;38422;53.172;6.974;2023-02-15T05:42:33;2.40;99.90
52513;DHT22;38422;53.172;6.974;2023-02-15T05:44:58;2.40;99.90
52513;DHT22;38422;53.172;6.974;2023-02-15T05:47:24;2.40;99.90
52513;DHT22;38422;53.172;6.974;2023-02-15T05:49:49;2.40;99.90
52513;DHT22;38422;53.172;6.974;2023-02-15T05:52:15;2.40;99.90
52513;DHT22;38422;53.172;6.974;2023-02-15T05:54:41;2.40;99.90
52513;DHT22;38422;53.172;6.974;2023-02-15T05:57:06;2.40;99.90
52513;DHT22;38422;53.172;6.974;2023-02-15T05:59:32;2.40;99.90
52513;DHT22;38422;53.172;6.974;2023-02-15T06:01:57;2.40;99.90
52513;DHT22;38422;53.172;6.974;2023-02-15T06:04:23;2.40;99.90
52513;DHT22;38422;53.172;6.974;2023-02-15T06:06:49;2.40;99.90
52513;DHT22;38422;53.172;6.974;2023-02-15T06:09:14;2.30;99.90
52513;DHT22;38422;53.172;6.974;2023-02-15T06:11:43;2.30;99.90
52513;DHT22;38422;53.172;6.974;2023-02-15T06:14:09;2.30;99.90
52513;DHT22;38422;53.172;6.974;2023-02-15T06:16:35;2.30;99.90
52513;DHT22;38422;53.172;6.974;2023-02-15T06:19:00;2.20;99.90
52513;DHT22;38422;53.172;6.974;2023-02-15T06:21:27;2.20;99.90
52513;DHT22;38422;53.172;6.974;2023-02-15T06:23:52;2.20;99.90
52513;DHT22;38422;53.172;6.974;2023-02-15T06:26:18;2.20;99.90
52513;DHT22;38422;53.172;6.974;2023-02-15T06:28:44;2.30;99.90
52513;DHT22;38422;53.172;6.974;2023-02-15T06:31:09;2.30;99.90
52513;DHT22;38422;53.172;6.974;2023-02-15T06:33:35;2.30;99.90
52513;DHT22;38422;53.172;6.974;2023-02-15T06:36:01;2.40;99.90
52513;DHT22;38422;53.172;6.974;2023-02-15T06:38:27;2.40;99.90
52513;DHT22;38422;53.172;6.974;2023-02-15T06:40:52;2.30;99.90
52513;DHT22;38422;53.172;6.974;2023-02-15T06:43:18;2.40;99.90
52513;DHT22;38422;53.172;6.974;2023-02-15T06:45:43;2.40;99.90
52513;DHT22;38422;53.172;6.974;2023-02-15T06:48:09;2.40;99.90
52513;DHT22;38422;53.172;6.974;2023-02-15T06:50:37;2.40;99.90
52513;DHT22;38422;53.172;6.974;2023-02-15T06:53:02;2.40;99.90
52513;DHT22;38422;53.172;6.974;2023-02-15T06:55:28;2.40;99.90
52513;DHT22;38422;53.172;6.974;2023-02-15T06:57:54;2.40;99.90
52513;DHT22;38422;53.172;6.974;2023-02-15T07:00:19;2.40;99.90
52513;DHT22;38422;53.172;6.974;2023-02-15T07:02:47;2.40;99.90
52513;DHT22;38422;53.172;6.974;2023-02-15T07:05:12;2.40;99.90
52513;DHT22;38422;53.172;6.974;2023-02-15T07:07:38;2.40;99.90
52513;DHT22;38422;53.172;6.974;2023-02-15T07:10:04;2.30;99.90
52513;DHT22;38422;53.172;6.974;2023-02-15T07:12:29;2.30;99.90
52513;DHT22;38422;53.172;6.974;2023-02-15T07:15:17;2.30;99.90
52513;DHT22;38422;53.172;6.974;2023-02-15T07:17:43;2.30;99.90
52513;DHT22;38422;53.172;6.974;2023-02-15T07:20:14;2.30;99.90
52513;DHT22;38422;53.172;6.974;2023-02-15T07:22:40;2.30;99.90
52513;DHT22;38422;53.172;6.974;2023-02-15T07:25:06;2.30;99.90
52513;DHT22;38422;53.172;6.974;2023-02-15T07:27:32;2.30;99.90
52513;DHT22;38422;53.172;6.974;2023-02-15T07:29:58;2.30;99.90
52513;DHT22;38422;53.172;6.974;2023-02-15T07:32:23;2.30;99.90
52513;DHT22;38422;53.172;6.974;2023-02-15T07:34:49;2.40;99.90
52513;DHT22;38422;53.172;6.974;2023-02-15T07:37:14;2.40;99.90
52513;DHT22;38422;53.172;6.974;2023-02-15T07:39:40;2.40;99.90
52513;DHT22;38422;53.172;6.974;2023-02-15T07:42:05;2.40;99.90
52513;DHT22;38422;53.172;6.974;2023-02-15T07:44:31;2.50;99.90
52513;DHT22;38422;53.172;6.974;2023-02-15T07:46:57;2.50;99.90
52513;DHT22;38422;53.172;6.974;2023-02-15T07:49:22;2.50;99.90
52513;DHT22;38422;53.172;6.974;2023-02-15T07:51:48;2.50;99.90
52513;DHT22;38422;53.172;6.974;2023-02-15T07:54:13;2.50;99.90
52513;DHT22;38422;53.172;6.974;2023-02-15T07:56:39;2.60;99.90
52513;DHT22;38422;53.172;6.974;2023-02-15T07:59:05;2.60;99.90
52513;DHT22;38422;53.172;6.974;2023-02-15T08:01:31;2.70;99.90
52513;DHT22;38422;53.172;6.974;2023-02-15T08:03:57;2.70;99.90
52513;DHT22;38422;53.172;6.974;2023-02-15T08:06:24;2.70;99.90
52513;DHT22;38422;53.172;6.974;2023-02-15T08:08:50;2.70;99.90
52513;DHT22;38422;53.172;6.974;2023-02-15T08:11:26;2.80;99.90
52513;DHT22;38422;53.172;6.974;2023-02-15T08:14:11;2.80;99.90
52513;DHT22;38422;53.172;6.974;2023-02-15T08:16:45;2.80;99.90
52513;DHT22;38422;53.172;6.974;2023-02-15T08:21:40;2.90;99.90
52513;DHT22;38422;53.172;6.974;2023-02-15T08:24:06;2.90;99.90
52513;DHT22;38422;53.172;6.974;2023-02-15T08:26:33;2.90;99.90
52513;DHT22;38422;53.172;6.974;2023-02-15T08:28:59;3.00;99.90
52513;DHT22;38422;53.172;6.974;2023-02-15T08:31:24;3.00;99.90
52513;DHT22;38422;53.172;6.974;2023-02-15T08:33:51;3.10;99.90
52513;DHT22;38422;53.172;6.974;2023-02-15T08:36:18;3.10;99.90
52513;DHT22;38422;53.172;6.974;2023-02-15T08:38:44;3.10;99.90
52513;DHT22;38422;53.172;6.974;2023-02-15T08:43:35;3.20;99.90
52513;DHT22;38422;53.172;6.974;2023-02-15T08:46:00;3.20;99.90
52513;DHT22;38422;53.172;6.974;2023-02-15T08:48:26;3.20;99.90
52513;DHT22;38422;53.172;6.974;2023-02-15T08:50:51;3.30;99.90
52513;DHT22;38422;53.172;6.974;2023-02-15T08:53:17;3.30;99.90
52513;DHT22;38422;53.172;6.974;2023-02-15T08:55:47;3.30;99.90
52513;DHT22;38422;53.172;6.974;2023-02-15T08:58:12;3.40;99.90
52513;DHT22;38422;53.172;6.974;2023-02-15T09:00:38;3.40;99.90
52513;DHT22;38422;53.172;6.974;2023-02-15T09:03:03;3.50;99.90
52513;DHT22;38422;53.172;6.974;2023-02-15T09:05:29;3.50;99.90
52513;DHT22;38422;53.172;6.974;2023-02-15T09:07:55;3.50;99.90
52513;DHT22;38422;53.172;6.974;2023-02-15T09:10:20;3.60;99.90
52513;DHT22;38422;53.172;6.974;2023-02-15T09:12:46;3.60;99.90
52513;DHT22;38422;53.172;6.974;2023-02-15T09:15:11;3.60;99.90
52513;DHT22;38422;53.172;6.974;2023-02-15T09:17:37;3.70;99.90
52513;DHT22;38422;53.172;6.974;2023-02-15T09:20:02;3.70;99.90
52513;DHT22;38422;53.172;6.974;2023-02-15T09:22:28;3.70;99.90
52513;DHT22;38422;53.172;6.974;2023-02-15T09:24:56;3.80;99.90
52513;DHT22;38422;53.172;6.974;2023-02-15T09:27:21;3.80;99.90
52513;DHT22;38422;53.172;6.974;2023-02-15T09:29:47;3.90;99.90
52513;DHT22;38422;53.172;6.974;2023-02-15T09:32:13;3.90;99.90
52513;DHT22;38422;53.172;6.974;2023-02-15T09:34:39;4.00;99.90
52513;DHT22;38422;53.172;6.974;2023-02-15T09:37:05;4.00;99.90
52513;DHT22;38422;53.172;6.974;2023-02-15T09:39:30;4.10;99.90
52513;DHT22;38422;53.172;6.974;2023-02-15T09:42:03;4.10;99.90
52513;DHT22;38422;53.172;6.974;2023-02-15T09:54:42;4.40;99.90
52513;DHT22;38422;53.172;6.974;2023-02-15T09:57:21;4.50;99.90
52513;DHT22;38422;53.172;6.974;2023-02-15T10:05:11;4.90;99.90
52513;DHT22;38422;53.172;6.974;2023-02-15T10:18:11;5.70;99.90
52513;DHT22;38422;53.172;6.974;2023-02-15T10:25:59;6.00;99.90
52513;DHT22;38422;53.172;6.974;2023-02-15T10:28:27;6.20;99.90
52513;DHT22;38422;53.172;6.974;2023-02-15T10:31:04;6.40;99.90
52513;DHT22;38422;53.172;6.974;2023-02-15T10:44:08;7.00;99.90
52513;DHT22;38422;53.172;6.974;2023-02-15T10:46:47;7.10;99.90
52513;DHT22;38422;53.172;6.974;2023-02-15T10:49:41;7.20;99.90
52513;DHT22;38422;53.172;6.974;2023-02-15T10:55:02;7.40;99.90
52513;DHT22;38422;53.172;6.974;2023-02-15T11:07:52;7.60;99.90
52513;DHT22;38422;53.172;6.974;2023-02-15T11:10:39;7.70;99.90
52513;DHT22;38422;53.172;6.974;2023-02-15T11:13:08;7.80;99.90
52513;DHT22;38422;53.172;6.974;2023-02-15T11:15:36;8.00;99.90
52513;DHT22;38422;53.172;6.974;2023-02-15T11:18:18;8.10;99.90
52513;DHT22;38422;53.172;6.974;2023-02-15T11:20:50;8.30;99.90
52513;DHT22;38422;53.172;6.974;2023-02-15T11:23:18;8.50;99.90
52513;DHT22;38422;53.172;6.974;2023-02-15T11:25:45;8.70;99.90
52513;DHT22;38422;53.172;6.974;2023-02-15T11:28:31;8.80;99.90
52513;DHT22;38422;53.172;6.974;2023-02-15T11:31:00;9.00;99.90
52513;DHT22;38422;53.172;6.974;2023-02-15T11:33:28;9.00;99.90
52513;DHT22;38422;53.172;6.974;2023-02-15T11:35:59;8.90;99.90
52513;DHT22;38422;53.172;6.974;2023-02-15T11:38:27;8.80;99.90
52513;DHT22;38422;53.172;6.974;2023-02-15T11:40:59;8.80;99.90
52513;DHT22;38422;53.172;6.974;2023-02-15T11:43:28;8.90;99.90
52513;DHT22;38422;53.172;6.974;2023-02-15T11:45:56;9.10;99.90
52513;DHT22;38422;53.172;6.974;2023-02-15T11:48:22;9.20;99.90
52513;DHT22;38422;53.172;6.974;2023-02-15T11:50:48;9.30;99.90
52513;DHT22;38422;53.172;6.974;2023-02-15T11:53:15;9.50;99.90
52513;DHT22;38422;53.172;6.974;2023-02-15T11:55:44;9.70;99.90
52513;DHT22;38422;53.172;6.974;2023-02-15T12:00:49;9.90;99.90
52513;DHT22;38422;53.172;6.974;2023-02-15T12:03:27;10.00;99.90
52513;DHT22;38422;53.172;6.974;2023-02-15T12:05:56;10.20;99.90
52513;DHT22;38422;53.172;6.974;2023-02-15T12:08:23;10.30;99.90
52513;DHT22;38422;53.172;6.974;2023-02-15T12:13:15;10.40;99.90
52513;DHT22;38422;53.172;6.974;2023-02-15T12:15:45;10.50;99.90
52513;DHT22;38422;53.172;6.974;2023-02-15T12:18:24;10.50;99.90
52513;DHT22;38422;53.172;6.974;2023-02-15T12:20:53;10.60;99.90
52513;DHT22;38422;53.172;6.974;2023-02-15T12:23:23;10.60;99.90
52513;DHT22;38422;53.172;6.974;2023-02-15T12:25:52;10.80;99.90
52513;DHT22;38422;53.172;6.974;2023-02-15T12:31:01;11.20;99.90
52513;DHT22;38422;53.172;6.974;2023-02-15T12:33:44;11.30;99.90
52513;DHT22;38422;53.172;6.974;2023-02-15T12:36:12;11.50;99.90
52513;DHT22;38422;53.172;6.974;2023-02-15T12:38:39;11.50;99.90
52513;DHT22;38422;53.172;6.974;2023-02-15T12:41:21;11.50;99.90
52513;DHT22;38422;53.172;6.974;2023-02-15T12:43:47;11.50;99.90
52513;DHT22;38422;53.172;6.974;2023-02-15T12:48:44;11.50;99.90
52513;DHT22;38422;53.172;6.974;2023-02-15T12:51:13;11.60;99.90
52513;DHT22;38422;53.172;6.974;2023-02-15T12:53:39;11.70;99.90
52513;DHT22;38422;53.172;6.974;2023-02-15T12:56:05;11.90;99.90
52513;DHT22;38422;53.172;6.974;2023-02-15T12:58:32;11.90;99.90
52513;DHT22;38422;53.172;6.974;2023-02-15T13:01:02;11.90;99.90
52513;DHT22;38422;53.172;6.974;2023-02-15T13:03:28;12.00;99.90
52513;DHT22;38422;53.172;6.974;2023-02-15T13:05:54;12.00;99.90
52513;DHT22;38422;53.172;6.974;2023-02-15T13:08:21;12.00;99.90
52513;DHT22;38422;53.172;6.974;2023-02-15T13:11:03;12.00;99.90
52513;DHT22;38422;53.172;6.974;2023-02-15T13:13:31;12.10;99.90
52513;DHT22;38422;53.172;6.974;2023-02-15T13:16:10;12.20;99.90
52513;DHT22;38422;53.172;6.974;2023-02-15T13:18:38;12.40;99.90
52513;DHT22;38422;53.172;6.974;2023-02-15T13:23:32;12.60;99.90
52513;DHT22;38422;53.172;6.974;2023-02-15T13:25:59;12.70;99.90
52513;DHT22;38422;53.172;6.974;2023-02-15T13:28:38;12.70;99.90
52513;DHT22;38422;53.172;6.974;2023-02-15T13:31:07;12.60;99.90
52513;DHT22;38422;53.172;6.974;2023-02-15T13:33:36;12.50;99.90
52513;DHT22;38422;53.172;6.974;2023-02-15T13:41:17;12.00;99.90
52513;DHT22;38422;53.172;6.974;2023-02-15T13:43:48;12.00;99.90
52513;DHT22;38422;53.172;6.974;2023-02-15T13:46:21;11.80;99.90
52513;DHT22;38422;53.172;6.974;2023-02-15T13:53:58;11.70;99.90
52513;DHT22;38422;53.172;6.974;2023-02-15T13:56:29;11.80;99.90
52513;DHT22;38422;53.172;6.974;2023-02-15T13:59:06;11.80;99.90
52513;DHT22;38422;53.172;6.974;2023-02-15T14:01:47;11.80;99.90
52513;DHT22;38422;53.172;6.974;2023-02-15T14:15:20;11.70;99.90
52513;DHT22;38422;53.172;6.974;2023-02-15T14:17:26;11.70;99.90
52513;DHT22;38422;53.172;6.974;2023-02-15T14:19:54;11.70;99.90
52513;DHT22;38422;53.172;6.974;2023-02-15T14:27:27;11.70;99.90
52513;DHT22;38422;53.172;6.974;2023-02-15T14:30:00;11.60;99.90
52513;DHT22;38422;53.172;6.974;2023-02-15T14:32:34;11.60;99.90
52513;DHT22;38422;53.172;6.974;2023-02-15T14:35:05;11.50;99.90
52513;DHT22;38422;53.172;6.974;2023-02-15T14:43:11;11.40;99.90
52513;DHT22;38422;53.172;6.974;2023-02-15T14:45:49;11.30;99.90
52513;DHT22;38422;53.172;6.974;2023-02-15T14:48:20;11.30;99.90
52513;DHT22;38422;53.172;6.974;2023-02-15T14:50:47;11.30;99.90
52513;DHT22;38422;53.172;6.974;2023-02-15T14:53:33;11.20;99.90
52513;DHT22;38422;53.172;6.974;2023-02-15T15:01:27;11.00;99.90
52513;DHT22;38422;53.172;6.974;2023-02-15T15:03:56;10.90;99.90
52513;DHT22;38422;53.172;6.974;2023-02-15T15:06:27;10.90;99.90
52513;DHT22;38422;53.172;6.974;2023-02-15T15:08:55;10.80;99.90
52513;DHT22;38422;53.172;6.974;2023-02-15T15:11:47;10.80;99.90
52513;DHT22;38422;53.172;6.974;2023-02-15T15:14:13;10.70;99.90
52513;DHT22;38422;53.172;6.974;2023-02-15T15:16:56;10.70;99.90
52513;DHT22;38422;53.172;6.974;2023-02-15T15:22:11;10.60;99.90
52513;DHT22;38422;53.172;6.974;2023-02-15T15:29:51;10.60;99.90
52513;DHT22;38422;53.172;6.974;2023-02-15T15:32:18;10.50;99.90
52513;DHT22;38422;53.172;6.974;2023-02-15T15:47:43;10.30;99.90
52513;DHT22;38422;53.172;6.974;2023-02-15T15:50:13;10.30;99.90
52513;DHT22;38422;53.172;6.974;2023-02-15T15:52:38;10.20;99.90
52513;DHT22;38422;53.172;6.974;2023-02-15T15:55:14;10.20;99.90
52513;DHT22;38422;53.172;6.974;2023-02-15T15:57:41;10.20;99.90
52513;DHT22;38422;53.172;6.974;2023-02-15T16:00:26;10.10;99.90
52513;DHT22;38422;53.172;6.974;2023-02-15T16:02:54;10.10;99.90
52513;DHT22;38422;53.172;6.974;2023-02-15T16:05:21;10.10;99.90
52513;DHT22;38422;53.172;6.974;2023-02-15T16:07:46;10.00;99.90
52513;DHT22;38422;53.172;6.974;2023-02-15T16:10:45;10.00;99.90
52513;DHT22;38422;53.172;6.974;2023-02-15T16:13:04;10.00;99.90
52513;DHT22;38422;53.172;6.974;2023-02-15T16:15:52;9.90;99.90
52513;DHT22;38422;53.172;6.974;2023-02-15T16:18:18;9.90;99.90
52513;DHT22;38422;53.172;6.974;2023-02-15T16:23:36;9.90;99.90
52513;DHT22;38422;53.172;6.974;2023-02-15T16:28:52;9.80;99.90
52513;DHT22;38422;53.172;6.974;2023-02-15T16:31:18;9.70;99.90
52513;DHT22;38422;53.172;6.974;2023-02-15T16:33:44;9.70;99.90
52513;DHT22;38422;53.172;6.974;2023-02-15T16:36:11;9.60;99.90
52513;DHT22;38422;53.172;6.974;2023-02-15T16:41:15;9.50;99.90
52513;DHT22;38422;53.172;6.974;2023-02-15T16:43:42;9.50;99.90
52513;DHT22;38422;53.172;6.974;2023-02-15T16:46:16;9.40;99.90
52513;DHT22;38422;53.172;6.974;2023-02-15T16:48:44;9.40;99.90
52513;DHT22;38422;53.172;6.974;2023-02-15T16:51:10;9.40;99.90
52513;DHT22;38422;53.172;6.974;2023-02-15T16:53:43;9.40;99.90
52513;DHT22;38422;53.172;6.974;2023-02-15T16:56:11;9.40;99.90
52513;DHT22;38422;53.172;6.974;2023-02-15T16:58:38;9.30;99.90
52513;DHT22;38422;53.172;6.974;2023-02-15T17:01:06;9.30;99.90
52513;DHT22;38422;53.172;6.974;2023-02-15T17:03:32;9.30;99.90
52513;DHT22;38422;53.172;6.974;2023-02-15T17:05:59;9.20;99.90
52513;DHT22;38422;53.172;6.974;2023-02-15T17:08:29;9.20;99.90
52513;DHT22;38422;53.172;6.974;2023-02-15T17:13:24;9.10;99.90
52513;DHT22;38422;53.172;6.974;2023-02-15T17:18:26;9.10;99.90
52513;DHT22;38422;53.172;6.974;2023-02-15T17:20:53;9.10;99.90
52513;DHT22;38422;53.172;6.974;2023-02-15T17:25:48;8.90;99.90
52513;DHT22;38422;53.172;6.974;2023-02-15T17:28:18;8.90;99.90
52513;DHT22;38422;53.172;6.974;2023-02-15T17:30:44;8.90;99.90
52513;DHT22;38422;53.172;6.974;2023-02-15T17:33:24;8.90;99.90
52513;DHT22;38422;53.172;6.974;2023-02-15T17:36:13;8.90;99.90
52513;DHT22;38422;53.172;6.974;2023-02-15T17:39:04;8.80;99.90
52513;DHT22;38422;53.172;6.974;2023-02-15T17:41:28;8.80;99.90
52513;DHT22;38422;53.172;6.974;2023-02-15T17:43:54;8.80;99.90
52513;DHT22;38422;53.172;6.974;2023-02-15T17:46:20;8.70;99.90
52513;DHT22;38422;53.172;6.974;2023-02-15T17:48:49;8.60;99.90
52513;DHT22;38422;53.172;6.974;2023-02-15T17:51:15;8.60;99.90
52513;DHT22;38422;53.172;6.974;2023-02-15T17:53:41;8.60;99.90
52513;DHT22;38422;53.172;6.974;2023-02-15T17:56:27;8.50;99.90
52513;DHT22;38422;53.172;6.974;2023-02-15T17:58:53;8.50;99.90
52513;DHT22;38422;53.172;6.974;2023-02-15T18:01:19;8.40;99.90
52513;DHT22;38422;53.172;6.974;2023-02-15T18:04:03;8.40;99.90
52513;DHT22;38422;53.172;6.974;2023-02-15T18:06:48;8.30;99.90
52513;DHT22;38422;53.172;6.974;2023-02-15T18:09:33;8.30;99.90
52513;DHT22;38422;53.172;6.974;2023-02-15T18:14:46;8.20;99.90
52513;DHT22;38422;53.172;6.974;2023-02-15T18:17:12;8.20;99.90
52513;DHT22;38422;53.172;6.974;2023-02-15T18:19:38;8.20;99.90
52513;DHT22;38422;53.172;6.974;2023-02-15T18:22:09;8.20;99.90
52513;DHT22;38422;53.172;6.974;2023-02-15T18:24:35;8.10;99.90
52513;DHT22;38422;53.172;6.974;2023-02-15T18:27:01;8.10;99.90
52513;DHT22;38422;53.172;6.974;2023-02-15T18:29:26;8.10;99.90
52513;DHT22;38422;53.172;6.974;2023-02-15T18:31:53;8.00;99.90
52513;DHT22;38422;53.172;6.974;2023-02-15T18:34:24;8.00;99.90
52513;DHT22;38422;53.172;6.974;2023-02-15T18:36:50;8.00;99.90
52513;DHT22;38422;53.172;6.974;2023-02-15T18:39:22;7.90;99.90
52513;DHT22;38422;53.172;6.974;2023-02-15T18:41:48;8.00;99.90
52513;DHT22;38422;53.172;6.974;2023-02-15T18:44:14;7.90;99.90
52513;DHT22;38422;53.172;6.974;2023-02-15T18:46:40;7.90;99.90
52513;DHT22;38422;53.172;6.974;2023-02-15T18:49:05;7.90;99.90
52513;DHT22;38422;53.172;6.974;2023-02-15T18:51:31;7.90;99.90
52513;DHT22;38422;53.172;6.974;2023-02-15T18:53:59;7.90;99.90